sensor_id;sensor_type;location;lat;lon;timestamp;temperature;humidity
26964;DHT22;14521;48.148;-1.656;2023-03-01T00:01:30;18.00;72.40
26964;DHT22;14521;48.148;-1.656;2023-03-01T00:04:52;17.90;72.00
26964;DHT22;14521;48.148;-1.656;2023-03-01T00:08:15;17.90;71.90
26964;DHT22;14521;48.148;-1.656;2023-03-01T00:11:37;17.90;71.60
26964;DHT22;14521;48.148;-1.656;2023-03-01T00:14:59;17.90;71.00
26964;DHT22;14521;48.148;-1.656;2023-03-01T00:18:22;17.80;70.60
26964;DHT22;14521;48.148;-1.656;2023-03-01T00:21:44;17.80;70.30
26964;DHT22;14521;48.148;-1.656;2023-03-01T00:25:07;17.80;69.80
26964;DHT22;14521;48.148;-1.656;2023-03-01T00:28:29;17.90;69.70
26964;DHT22;14521;48.148;-1.656;2023-03-01T00:31:51;17.80;69.30
26964;DHT22;14521;48.148;-1.656;2023-03-01T00:35:14;17.80;69.20
26964;DHT22;14521;48.148;-1.656;2023-03-01T00:38:37;17.90;69.00
26964;DHT22;14521;48.148;-1.656;2023-03-01T00:42:00;17.80;68.90
26964;DHT22;14521;48.148;-1.656;2023-03-01T00:45:22;17.80;68.80
26964;DHT22;14521;48.148;-1.656;2023-03-01T00:48:45;17.80;68.50
26964;DHT22;14521;48.148;-1.656;2023-03-01T00:52:07;17.80;68.30
26964;DHT22;14521;48.148;-1.656;2023-03-01T00:55:30;17.80;68.50
26964;DHT22;14521;48.148;-1.656;2023-03-01T00:58:52;17.80;68.20
26964;DHT22;14521;48.148;-1.656;2023-03-01T01:02:15;17.80;68.30
26964;DHT22;14521;48.148;-1.656;2023-03-01T01:05:37;17.80;68.10
26964;DHT22;14521;48.148;-1.656;2023-03-01T01:09:00;17.80;68.00
26964;DHT22;14521;48.148;-1.656;2023-03-01T01:12:22;17.80;68.00
26964;DHT22;14521;48.148;-1.656;2023-03-01T01:15:45;17.80;68.60
26964;DHT22;14521;48.148;-1.656;2023-03-01T01:19:07;17.80;67.50
26964;DHT22;14521;48.148;-1.656;2023-03-01T01:22:31;17.70;67.60
26964;DHT22;14521;48.148;-1.656;2023-03-01T01:25:53;17.70;67.50
26964;DHT22;14521;48.148;-1.656;2023-03-01T01:29:15;17.70;67.30
26964;DHT22;14521;48.148;-1.656;2023-03-01T01:32:38;17.70;67.50
26964;DHT22;14521;48.148;-1.656;2023-03-01T01:36:00;17.70;67.30
26964;DHT22;14521;48.148;-1.656;2023-03-01T01:39:23;17.70;67.50
26964;DHT22;14521;48.148;-1.656;2023-03-01T01:42:45;17.70;67.50
26964;DHT22;14521;48.148;-1.656;2023-03-01T01:49:48;17.60;67.20
26964;DHT22;14521;48.148;-1.656;2023-03-01T01:53:15;17.70;67.00
26964;DHT22;14521;48.148;-1.656;2023-03-01T01:56:40;17.60;67.30
26964;DHT22;14521;48.148;-1.656;2023-03-01T02:00:08;17.70;67.20
26964;DHT22;14521;48.148;-1.656;2023-03-01T02:03:39;17.70;67.10
26964;DHT22;14521;48.148;-1.656;2023-03-01T02:07:15;17.60;67.10
26964;DHT22;14521;48.148;-1.656;2023-03-01T02:10:38;17.70;67.00
26964;DHT22;14521;48.148;-1.656;2023-03-01T02:14:01;17.60;67.10
26964;DHT22;14521;48.148;-1.656;2023-03-01T02:17:24;17.60;67.90
26964;DHT22;14521;48.148;-1.656;2023-03-01T02:31:37;17.60;67.00
26964;DHT22;14521;48.148;-1.656;2023-03-01T02:35:09;17.60;67.00
26964;DHT22;14521;48.148;-1.656;2023-03-01T02:38:32;17.60;66.70
26964;DHT22;14521;48.148;-1.656;2023-03-01T02:41:56;17.60;66.70
26964;DHT22;14521;48.148;-1.656;2023-03-01T02:45:20;17.60;66.60
26964;DHT22;14521;48.148;-1.656;2023-03-01T02:48:49;17.60;66.60
26964;DHT22;14521;48.148;-1.656;2023-03-01T02:55:47;17.60;66.60
26964;DHT22;14521;48.148;-1.656;2023-03-01T02:59:10;17.50;66.40
26964;DHT22;14521;48.148;-1.656;2023-03-01T03:02:34;17.60;66.30
26964;DHT22;14521;48.148;-1.656;2023-03-01T03:06:08;17.60;66.40
26964;DHT22;14521;48.148;-1.656;2023-03-01T03:09:31;17.50;66.30
26964;DHT22;14521;48.148;-1.656;2023-03-01T03:12:59;17.60;66.40
26964;DHT22;14521;48.148;-1.656;2023-03-01T03:16:21;17.50;66.40
26964;DHT22;14521;48.148;-1.656;2023-03-01T03:19:44;17.50;66.40
26964;DHT22;14521;48.148;-1.656;2023-03-01T03:23:07;17.60;66.40
26964;DHT22;14521;48.148;-1.656;2023-03-01T03:26:30;17.50;66.40
26964;DHT22;14521;48.148;-1.656;2023-03-01T03:29:53;17.50;66.40
26964;DHT22;14521;48.148;-1.656;2023-03-01T03:33:15;17.50;66.60
26964;DHT22;14521;48.148;-1.656;2023-03-01T03:36:37;17.50;66.60
26964;DHT22;14521;48.148;-1.656;2023-03-01T03:40:00;17.50;66.50
26964;DHT22;14521;48.148;-1.656;2023-03-01T03:43:23;17.50;66.40
26964;DHT22;14521;48.148;-1.656;2023-03-01T03:46:45;17.60;66.40
26964;DHT22;14521;48.148;-1.656;2023-03-01T03:50:09;17.50;66.20
26964;DHT22;14521;48.148;-1.656;2023-03-01T03:53:33;17.50;65.50
26964;DHT22;14521;48.148;-1.656;2023-03-01T03:56:55;17.50;65.90
26964;DHT22;14521;48.148;-1.656;2023-03-01T04:00:20;17.50;66.60
26964;DHT22;14521;48.148;-1.656;2023-03-01T04:03:43;17.50;66.40
26964;DHT22;14521;48.148;-1.656;2023-03-01T04:07:08;17.60;66.40
26964;DHT22;14521;48.148;-1.656;2023-03-01T04:10:40;17.50;66.10
26964;DHT22;14521;48.148;-1.656;2023-03-01T04:14:03;17.50;66.10
26964;DHT22;14521;48.148;-1.656;2023-03-01T04:17:26;17.50;66.30
26964;DHT22;14521;48.148;-1.656;2023-03-01T04:20:49;17.50;66.10
26964;DHT22;14521;48.148;-1.656;2023-03-01T04:24:14;17.50;65.80
26964;DHT22;14521;48.148;-1.656;2023-03-01T04:27:37;17.50;65.70
26964;DHT22;14521;48.148;-1.656;2023-03-01T04:31:12;17.40;66.10
26964;DHT22;14521;48.148;-1.656;2023-03-01T04:34:35;17.50;66.00
26964;DHT22;14521;48.148;-1.656;2023-03-01T04:37:57;17.50;65.90
26964;DHT22;14521;48.148;-1.656;2023-03-01T04:41:22;17.50;65.80
26964;DHT22;14521;48.148;-1.656;2023-03-01T04:44:45;17.50;65.80
26964;DHT22;14521;48.148;-1.656;2023-03-01T04:48:07;17.50;65.70
26964;DHT22;14521;48.148;-1.656;2023-03-01T04:51:30;17.60;65.70
26964;DHT22;14521;48.148;-1.656;2023-03-01T04:54:54;17.50;65.50
26964;DHT22;14521;48.148;-1.656;2023-03-01T04:58:16;17.60;65.50
26964;DHT22;14521;48.148;-1.656;2023-03-01T05:01:38;17.60;65.60
26964;DHT22;14521;48.148;-1.656;2023-03-01T05:05:01;17.60;65.50
26964;DHT22;14521;48.148;-1.656;2023-03-01T05:08:23;17.60;65.60
26964;DHT22;14521;48.148;-1.656;2023-03-01T05:11:45;17.60;65.40
26964;DHT22;14521;48.148;-1.656;2023-03-01T05:15:08;17.60;65.80
26964;DHT22;14521;48.148;-1.656;2023-03-01T05:18:32;17.70;65.90
26964;DHT22;14521;48.148;-1.656;2023-03-01T05:21:55;17.80;65.70
26964;DHT22;14521;48.148;-1.656;2023-03-01T05:25:24;17.90;66.40
26964;DHT22;14521;48.148;-1.656;2023-03-01T05:28:46;18.00;65.50
26964;DHT22;14521;48.148;-1.656;2023-03-01T05:32:08;18.00;65.30
26964;DHT22;14521;48.148;-1.656;2023-03-01T05:35:32;18.10;65.10
26964;DHT22;14521;48.148;-1.656;2023-03-01T05:38:55;18.20;65.10
26964;DHT22;14521;48.148;-1.656;2023-03-01T05:42:17;18.20;65.10
26964;DHT22;14521;48.148;-1.656;2023-03-01T05:45:41;18.20;65.20
26964;DHT22;14521;48.148;-1.656;2023-03-01T05:49:03;18.30;65.20
26964;DHT22;14521;48.148;-1.656;2023-03-01T05:52:26;18.30;65.20
26964;DHT22;14521;48.148;-1.656;2023-03-01T05:55:48;18.40;65.20
26964;DHT22;14521;48.148;-1.656;2023-03-01T05:59:11;18.40;65.20
26964;DHT22;14521;48.148;-1.656;2023-03-01T06:02:34;18.40;65.30
26964;DHT22;14521;48.148;-1.656;2023-03-01T06:05:57;18.40;65.40
26964;DHT22;14521;48.148;-1.656;2023-03-01T06:09:20;18.40;65.30
26964;DHT22;14521;48.148;-1.656;2023-03-01T06:12:43;18.40;65.20
26964;DHT22;14521;48.148;-1.656;2023-03-01T06:16:06;18.40;65.20
26964;DHT22;14521;48.148;-1.656;2023-03-01T06:19:29;18.40;65.20
26964;DHT22;14521;48.148;-1.656;2023-03-01T06:22:51;18.40;65.20
26964;DHT22;14521;48.148;-1.656;2023-03-01T06:26:14;18.40;65.20
26964;DHT22;14521;48.148;-1.656;2023-03-01T06:29:36;18.40;65.10
26964;DHT22;14521;48.148;-1.656;2023-03-01T06:32:58;18.40;65.00
26964;DHT22;14521;48.148;-1.656;2023-03-01T06:36:25;18.40;65.00
26964;DHT22;14521;48.148;-1.656;2023-03-01T06:39:47;18.40;65.80
26964;DHT22;14521;48.148;-1.656;2023-03-01T06:43:09;18.40;64.90
26964;DHT22;14521;48.148;-1.656;2023-03-01T06:46:31;18.40;64.80
26964;DHT22;14521;48.148;-1.656;2023-03-01T06:49:54;18.40;64.90
26964;DHT22;14521;48.148;-1.656;2023-03-01T06:53:17;18.40;64.90
26964;DHT22;14521;48.148;-1.656;2023-03-01T06:56:39;18.40;64.90
26964;DHT22;14521;48.148;-1.656;2023-03-01T07:00:03;18.40;65.00
26964;DHT22;14521;48.148;-1.656;2023-03-01T07:03:25;18.40;65.10
26964;DHT22;14521;48.148;-1.656;2023-03-01T07:06:47;18.50;65.20
26964;DHT22;14521;48.148;-1.656;2023-03-01T07:10:16;18.50;65.20
26964;DHT22;14521;48.148;-1.656;2023-03-01T07:13:38;18.50;65.20
26964;DHT22;14521;48.148;-1.656;2023-03-01T07:17:01;18.50;65.10
26964;DHT22;14521;48.148;-1.656;2023-03-01T07:20:23;18.50;65.10
26964;DHT22;14521;48.148;-1.656;2023-03-01T07:23:48;18.50;65.10
26964;DHT22;14521;48.148;-1.656;2023-03-01T07:27:12;18.50;65.00
26964;DHT22;14521;48.148;-1.656;2023-03-01T07:30:34;18.50;64.70
26964;DHT22;14521;48.148;-1.656;2023-03-01T07:33:57;18.50;63.70
26964;DHT22;14521;48.148;-1.656;2023-03-01T07:37:19;18.40;63.80
26964;DHT22;14521;48.148;-1.656;2023-03-01T07:40:41;18.30;64.40
26964;DHT22;14521;48.148;-1.656;2023-03-01T07:44:04;18.40;64.90
26964;DHT22;14521;48.148;-1.656;2023-03-01T07:47:26;18.70;65.20
26964;DHT22;14521;48.148;-1.656;2023-03-01T07:50:48;18.80;66.10
26964;DHT22;14521;48.148;-1.656;2023-03-01T07:54:11;18.90;65.10
26964;DHT22;14521;48.148;-1.656;2023-03-01T07:57:33;19.00;65.60
26964;DHT22;14521;48.148;-1.656;2023-03-01T08:00:55;19.00;66.50
26964;DHT22;14521;48.148;-1.656;2023-03-01T08:04:18;19.10;66.30
26964;DHT22;14521;48.148;-1.656;2023-03-01T08:07:40;19.10;66.30
26964;DHT22;14521;48.148;-1.656;2023-03-01T08:11:04;19.00;65.50
26964;DHT22;14521;48.148;-1.656;2023-03-01T08:14:26;19.00;65.80
26964;DHT22;14521;48.148;-1.656;2023-03-01T08:17:49;18.90;65.70
26964;DHT22;14521;48.148;-1.656;2023-03-01T08:21:15;18.90;66.40
26964;DHT22;14521;48.148;-1.656;2023-03-01T08:24:37;19.00;67.20
26964;DHT22;14521;48.148;-1.656;2023-03-01T08:28:00;19.00;68.40
26964;DHT22;14521;48.148;-1.656;2023-03-01T08:31:26;19.00;68.40
26964;DHT22;14521;48.148;-1.656;2023-03-01T08:34:49;19.00;68.20
26964;DHT22;14521;48.148;-1.656;2023-03-01T08:38:11;19.00;68.40
26964;DHT22;14521;48.148;-1.656;2023-03-01T08:41:33;19.00;68.80
26964;DHT22;14521;48.148;-1.656;2023-03-01T08:44:56;19.00;67.80
26964;DHT22;14521;48.148;-1.656;2023-03-01T08:48:18;19.00;67.80
26964;DHT22;14521;48.148;-1.656;2023-03-01T08:51:41;19.00;69.00
26964;DHT22;14521;48.148;-1.656;2023-03-01T08:55:03;19.00;68.70
26964;DHT22;14521;48.148;-1.656;2023-03-01T08:58:26;19.00;68.20
26964;DHT22;14521;48.148;-1.656;2023-03-01T09:01:48;19.00;68.80
26964;DHT22;14521;48.148;-1.656;2023-03-01T09:05:10;19.10;68.50
26964;DHT22;14521;48.148;-1.656;2023-03-01T09:08:36;19.10;68.20
26964;DHT22;14521;48.148;-1.656;2023-03-01T09:11:59;19.10;69.00
26964;DHT22;14521;48.148;-1.656;2023-03-01T09:15:21;19.00;71.90
26964;DHT22;14521;48.148;-1.656;2023-03-01T09:18:44;19.10;71.30
26964;DHT22;14521;48.148;-1.656;2023-03-01T09:22:06;19.00;70.10
26964;DHT22;14521;48.148;-1.656;2023-03-01T09:25:28;19.00;71.00
26964;DHT22;14521;48.148;-1.656;2023-03-01T09:28:51;19.00;71.00
26964;DHT22;14521;48.148;-1.656;2023-03-01T09:32:14;19.00;71.10
26964;DHT22;14521;48.148;-1.656;2023-03-01T09:35:45;19.00;71.50
26964;DHT22;14521;48.148;-1.656;2023-03-01T09:39:08;19.00;71.50
26964;DHT22;14521;48.148;-1.656;2023-03-01T09:42:34;19.10;72.00
26964;DHT22;14521;48.148;-1.656;2023-03-01T09:46:03;19.10;71.10
26964;DHT22;14521;48.148;-1.656;2023-03-01T09:49:35;19.00;71.20
26964;DHT22;14521;48.148;-1.656;2023-03-01T09:53:02;19.00;71.80
26964;DHT22;14521;48.148;-1.656;2023-03-01T09:56:29;18.90;71.20
26964;DHT22;14521;48.148;-1.656;2023-03-01T10:03:38;18.80;69.00
26964;DHT22;14521;48.148;-1.656;2023-03-01T10:07:10;18.70;69.80
26964;DHT22;14521;48.148;-1.656;2023-03-01T10:10:36;18.70;69.50
26964;DHT22;14521;48.148;-1.656;2023-03-01T10:17:26;18.70;69.80
26964;DHT22;14521;48.148;-1.656;2023-03-01T10:20:57;18.60;68.80
26964;DHT22;14521;48.148;-1.656;2023-03-01T10:24:20;18.60;68.70
26964;DHT22;14521;48.148;-1.656;2023-03-01T10:28:00;18.60;69.50
26964;DHT22;14521;48.148;-1.656;2023-03-01T10:31:24;18.60;71.90
26964;DHT22;14521;48.148;-1.656;2023-03-01T10:34:51;18.60;70.80
26964;DHT22;14521;48.148;-1.656;2023-03-01T10:38:15;18.50;69.90
26964;DHT22;14521;48.148;-1.656;2023-03-01T10:41:40;18.50;69.40
26964;DHT22;14521;48.148;-1.656;2023-03-01T10:48:38;18.50;69.80
26964;DHT22;14521;48.148;-1.656;2023-03-01T10:52:11;18.50;69.40
26964;DHT22;14521;48.148;-1.656;2023-03-01T10:55:38;18.50;68.80
26964;DHT22;14521;48.148;-1.656;2023-03-01T10:59:04;18.50;68.90
26964;DHT22;14521;48.148;-1.656;2023-03-01T11:02:30;18.60;69.10
26964;DHT22;14521;48.148;-1.656;2023-03-01T11:05:56;18.50;69.00
26964;DHT22;14521;48.148;-1.656;2023-03-01T11:09:22;18.50;68.30
26964;DHT22;14521;48.148;-1.656;2023-03-01T11:12:45;18.60;69.30
26964;DHT22;14521;48.148;-1.656;2023-03-01T11:16:09;18.50;69.60
26964;DHT22;14521;48.148;-1.656;2023-03-01T11:19:33;18.50;69.40
26964;DHT22;14521;48.148;-1.656;2023-03-01T11:22:59;18.50;69.70
26964;DHT22;14521;48.148;-1.656;2023-03-01T11:26:23;18.50;69.60
26964;DHT22;14521;48.148;-1.656;2023-03-01T11:29:51;18.50;70.30
26964;DHT22;14521;48.148;-1.656;2023-03-01T11:33:19;18.60;69.60
26964;DHT22;14521;48.148;-1.656;2023-03-01T11:36:45;18.80;70.20
26964;DHT22;14521;48.148;-1.656;2023-03-01T11:40:13;18.80;70.60
26964;DHT22;14521;48.148;-1.656;2023-03-01T11:50:56;18.90;72.20
26964;DHT22;14521;48.148;-1.656;2023-03-01T12:12:42;19.00;75.30
26964;DHT22;14521;48.148;-1.656;2023-03-01T12:20:15;19.00;75.60
26964;DHT22;14521;48.148;-1.656;2023-03-01T12:23:46;19.00;76.10
26964;DHT22;14521;48.148;-1.656;2023-03-01T12:51:36;18.90;75.40
26964;DHT22;14521;48.148;-1.656;2023-03-01T12:55:00;19.00;76.00
26964;DHT22;14521;48.148;-1.656;2023-03-01T13:19:50;18.90;74.40
26964;DHT22;14521;48.148;-1.656;2023-03-01T13:30:38;18.90;74.30
26964;DHT22;14521;48.148;-1.656;2023-03-01T13:34:01;18.80;74.10
26964;DHT22;14521;48.148;-1.656;2023-03-01T13:37:33;18.80;74.80
26964;DHT22;14521;48.148;-1.656;2023-03-01T13:47:50;18.80;72.80
26964;DHT22;14521;48.148;-1.656;2023-03-01T13:51:14;18.80;73.30
26964;DHT22;14521;48.148;-1.656;2023-03-01T13:54:36;18.80;72.80
26964;DHT22;14521;48.148;-1.656;2023-03-01T13:58:01;18.80;72.80
26964;DHT22;14521;48.148;-1.656;2023-03-01T14:01:28;18.80;72.30
26964;DHT22;14521;48.148;-1.656;2023-03-01T14:04:58;18.80;72.40
26964;DHT22;14521;48.148;-1.656;2023-03-01T14:08:22;18.80;72.50
26964;DHT22;14521;48.148;-1.656;2023-03-01T14:15:15;18.80;72.40
26964;DHT22;14521;48.148;-1.656;2023-03-01T14:22:22;18.80;71.60
26964;DHT22;14521;48.148;-1.656;2023-03-01T14:25:48;18.80;72.40
26964;DHT22;14521;48.148;-1.656;2023-03-01T14:29:54;18.80;70.50
26964;DHT22;14521;48.148;-1.656;2023-03-01T14:32:58;18.80;71.20
26964;DHT22;14521;48.148;-1.656;2023-03-01T14:36:25;18.80;71.20
26964;DHT22;14521;48.148;-1.656;2023-03-01T14:39:47;18.80;71.30
26964;DHT22;14521;48.148;-1.656;2023-03-01T14:43:10;18.70;71.30
26964;DHT22;14521;48.148;-1.656;2023-03-01T14:46:35;18.70;71.40
26964;DHT22;14521;48.148;-1.656;2023-03-01T14:50:08;18.70;71.20
26964;DHT22;14521;48.148;-1.656;2023-03-01T14:53:30;18.70;71.40
26964;DHT22;14521;48.148;-1.656;2023-03-01T14:57:20;18.70;71.20
26964;DHT22;14521;48.148;-1.656;2023-03-01T15:00:48;18.70;71.10
26964;DHT22;14521;48.148;-1.656;2023-03-01T15:04:12;18.70;71.00
26964;DHT22;14521;48.148;-1.656;2023-03-01T15:07:36;18.70;71.00
26964;DHT22;14521;48.148;-1.656;2023-03-01T15:11:45;18.70;71.00
26964;DHT22;14521;48.148;-1.656;2023-03-01T15:14:42;18.70;71.10
26964;DHT22;14521;48.148;-1.656;2023-03-01T15:18:20;18.70;71.10
26964;DHT22;14521;48.148;-1.656;2023-03-01T15:21:44;18.70;70.90
26964;DHT22;14521;48.148;-1.656;2023-03-01T15:25:13;18.70;71.10
26964;DHT22;14521;48.148;-1.656;2023-03-01T15:28:37;18.70;71.10
26964;DHT22;14521;48.148;-1.656;2023-03-01T15:32:06;18.70;71.10
26964;DHT22;14521;48.148;-1.656;2023-03-01T15:39:04;18.70;70.70
26964;DHT22;14521;48.148;-1.656;2023-03-01T15:45:55;18.70;70.90
26964;DHT22;14521;48.148;-1.656;2023-03-01T15:49:33;18.70;71.00
26964;DHT22;14521;48.148;-1.656;2023-03-01T15:53:13;18.70;70.60
26964;DHT22;14521;48.148;-1.656;2023-03-01T15:56:37;18.70;70.20
26964;DHT22;14521;48.148;-1.656;2023-03-01T15:59:59;18.70;69.80
26964;DHT22;14521;48.148;-1.656;2023-03-01T16:03:22;18.70;69.90
26964;DHT22;14521;48.148;-1.656;2023-03-01T16:06:44;18.70;69.60
26964;DHT22;14521;48.148;-1.656;2023-03-01T16:10:07;18.70;70.10
26964;DHT22;14521;48.148;-1.656;2023-03-01T16:13:29;18.60;69.90
26964;DHT22;14521;48.148;-1.656;2023-03-01T16:16:51;18.60;69.80
26964;DHT22;14521;48.148;-1.656;2023-03-01T16:20:13;18.60;68.70
26964;DHT22;14521;48.148;-1.656;2023-03-01T16:23:50;18.60;68.50
26964;DHT22;14521;48.148;-1.656;2023-03-01T16:27:13;18.60;68.60
26964;DHT22;14521;48.148;-1.656;2023-03-01T16:30:38;18.60;69.10
26964;DHT22;14521;48.148;-1.656;2023-03-01T16:34:01;18.60;69.60
26964;DHT22;14521;48.148;-1.656;2023-03-01T16:37:23;18.60;70.10
26964;DHT22;14521;48.148;-1.656;2023-03-01T16:40:49;18.60;70.10
26964;DHT22;14521;48.148;-1.656;2023-03-01T16:44:12;18.60;70.00
26964;DHT22;14521;48.148;-1.656;2023-03-01T16:47:34;18.50;69.00
26964;DHT22;14521;48.148;-1.656;2023-03-01T16:50:57;18.60;69.20
26964;DHT22;14521;48.148;-1.656;2023-03-01T16:54:20;18.50;70.10
26964;DHT22;14521;48.148;-1.656;2023-03-01T16:57:42;18.50;69.60
26964;DHT22;14521;48.148;-1.656;2023-03-01T17:01:08;18.50;68.50
26964;DHT22;14521;48.148;-1.656;2023-03-01T17:04:31;18.60;68.00
26964;DHT22;14521;48.148;-1.656;2023-03-01T17:07:53;18.50;68.80
26964;DHT22;14521;48.148;-1.656;2023-03-01T17:11:18;18.50;68.80
26964;DHT22;14521;48.148;-1.656;2023-03-01T17:14:41;18.50;67.50
26964;DHT22;14521;48.148;-1.656;2023-03-01T17:18:03;18.40;67.00
26964;DHT22;14521;48.148;-1.656;2023-03-01T17:21:25;18.40;72.30
26964;DHT22;14521;48.148;-1.656;2023-03-01T17:24:48;18.30;70.00
26964;DHT22;14521;48.148;-1.656;2023-03-01T17:28:11;18.30;69.40
26964;DHT22;14521;48.148;-1.656;2023-03-01T17:31:33;18.40;69.30
26964;DHT22;14521;48.148;-1.656;2023-03-01T17:34:55;18.40;70.60
26964;DHT22;14521;48.148;-1.656;2023-03-01T17:38:18;18.40;70.40
26964;DHT22;14521;48.148;-1.656;2023-03-01T17:41:40;18.50;69.80
26964;DHT22;14521;48.148;-1.656;2023-03-01T17:45:02;18.40;69.00
26964;DHT22;14521;48.148;-1.656;2023-03-01T17:48:24;18.40;70.00
26964;DHT22;14521;48.148;-1.656;2023-03-01T17:51:47;18.40;70.00
26964;DHT22;14521;48.148;-1.656;2023-03-01T17:55:09;18.30;69.90
26964;DHT22;14521;48.148;-1.656;2023-03-01T17:58:31;18.30;69.90
26964;DHT22;14521;48.148;-1.656;2023-03-01T18:01:53;18.30;69.90
26964;DHT22;14521;48.148;-1.656;2023-03-01T18:05:16;18.30;69.90
26964;DHT22;14521;48.148;-1.656;2023-03-01T18:08:38;18.30;69.90
26964;DHT22;14521;48.148;-1.656;2023-03-01T18:12:00;18.30;69.70
26964;DHT22;14521;48.148;-1.656;2023-03-01T18:15:22;18.30;69.20
26964;DHT22;14521;48.148;-1.656;2023-03-01T18:18:45;18.40;69.10
26964;DHT22;14521;48.148;-1.656;2023-03-01T18:22:07;18.40;69.10
26964;DHT22;14521;48.148;-1.656;2023-03-01T18:25:29;18.50;69.10
26964;DHT22;14521;48.148;-1.656;2023-03-01T18:28:52;18.50;69.20
26964;DHT22;14521;48.148;-1.656;2023-03-01T18:32:14;18.50;69.10
26964;DHT22;14521;48.148;-1.656;2023-03-01T18:35:37;18.50;69.00
26964;DHT22;14521;48.148;-1.656;2023-03-01T18:39:03;18.50;68.80
26964;DHT22;14521;48.148;-1.656;2023-03-01T18:42:25;18.60;68.80
26964;DHT22;14521;48.148;-1.656;2023-03-01T18:45:47;18.60;68.10
26964;DHT22;14521;48.148;-1.656;2023-03-01T18:49:10;18.70;69.10
26964;DHT22;14521;48.148;-1.656;2023-03-01T18:52:32;18.70;69.90
26964;DHT22;14521;48.148;-1.656;2023-03-01T18:55:58;18.70;68.50
26964;DHT22;14521;48.148;-1.656;2023-03-01T18:59:20;18.80;68.60
26964;DHT22;14521;48.148;-1.656;2023-03-01T19:02:42;18.80;69.30
26964;DHT22;14521;48.148;-1.656;2023-03-01T19:06:05;18.80;68.20
26964;DHT22;14521;48.148;-1.656;2023-03-01T19:09:27;18.90;67.90
26964;DHT22;14521;48.148;-1.656;2023-03-01T19:12:50;18.90;69.50
26964;DHT22;14521;48.148;-1.656;2023-03-01T19:19:34;18.90;69.30
26964;DHT22;14521;48.148;-1.656;2023-03-01T19:22:57;19.00;71.00
26964;DHT22;14521;48.148;-1.656;2023-03-01T19:26:20;19.00;74.90
26964;DHT22;14521;48.148;-1.656;2023-03-01T19:29:42;19.00;71.40
26964;DHT22;14521;48.148;-1.656;2023-03-01T19:33:05;19.10;70.80
26964;DHT22;14521;48.148;-1.656;2023-03-01T19:36:27;19.10;77.20
26964;DHT22;14521;48.148;-1.656;2023-03-01T19:39:55;19.10;73.70
26964;DHT22;14521;48.148;-1.656;2023-03-01T19:43:18;19.20;72.40
26964;DHT22;14521;48.148;-1.656;2023-03-01T19:46:40;19.20;73.40
26964;DHT22;14521;48.148;-1.656;2023-03-01T19:50:02;19.30;74.10
26964;DHT22;14521;48.148;-1.656;2023-03-01T19:53:25;19.30;74.40
26964;DHT22;14521;48.148;-1.656;2023-03-01T19:56:50;19.30;74.70
26964;DHT22;14521;48.148;-1.656;2023-03-01T20:00:12;19.30;75.00
26964;DHT22;14521;48.148;-1.656;2023-03-01T20:03:35;19.20;75.40
26964;DHT22;14521;48.148;-1.656;2023-03-01T20:06:57;19.20;75.30
26964;DHT22;14521;48.148;-1.656;2023-03-01T20:10:19;19.20;75.10
26964;DHT22;14521;48.148;-1.656;2023-03-01T20:13:41;19.20;76.20
26964;DHT22;14521;48.148;-1.656;2023-03-01T20:17:04;19.20;72.60
26964;DHT22;14521;48.148;-1.656;2023-03-01T20:20:26;19.30;75.00
26964;DHT22;14521;48.148;-1.656;2023-03-01T20:23:48;19.30;74.70
26964;DHT22;14521;48.148;-1.656;2023-03-01T20:27:11;19.20;73.90
26964;DHT22;14521;48.148;-1.656;2023-03-01T20:30:33;19.20;74.60
26964;DHT22;14521;48.148;-1.656;2023-03-01T20:33:56;19.20;75.10
26964;DHT22;14521;48.148;-1.656;2023-03-01T20:37:18;19.20;73.20
26964;DHT22;14521;48.148;-1.656;2023-03-01T20:40:40;19.10;73.50
26964;DHT22;14521;48.148;-1.656;2023-03-01T20:44:03;19.10;72.90
26964;DHT22;14521;48.148;-1.656;2023-03-01T20:47:27;19.20;72.70
26964;DHT22;14521;48.148;-1.656;2023-03-01T20:50:49;19.10;72.40
26964;DHT22;14521;48.148;-1.656;2023-03-01T20:54:12;19.10;71.20
26964;DHT22;14521;48.148;-1.656;2023-03-01T20:57:34;19.10;71.00
26964;DHT22;14521;48.148;-1.656;2023-03-01T21:00:56;19.10;74.30
26964;DHT22;14521;48.148;-1.656;2023-03-01T21:04:18;19.10;72.40
26964;DHT22;14521;48.148;-1.656;2023-03-01T21:07:41;19.00;73.70
26964;DHT22;14521;48.148;-1.656;2023-03-01T21:11:04;19.00;76.40
26964;DHT22;14521;48.148;-1.656;2023-03-01T21:14:28;19.00;76.50
26964;DHT22;14521;48.148;-1.656;2023-03-01T21:17:50;18.90;70.30
26964;DHT22;14521;48.148;-1.656;2023-03-01T21:21:14;18.90;74.60
26964;DHT22;14521;48.148;-1.656;2023-03-01T21:24:37;18.90;74.60
26964;DHT22;14521;48.148;-1.656;2023-03-01T21:27:59;18.80;74.50
26964;DHT22;14521;48.148;-1.656;2023-03-01T21:31:26;18.80;72.50
26964;DHT22;14521;48.148;-1.656;2023-03-01T21:34:49;18.80;74.80
26964;DHT22;14521;48.148;-1.656;2023-03-01T21:38:11;18.80;73.40
26964;DHT22;14521;48.148;-1.656;2023-03-01T21:41:34;18.80;73.90
26964;DHT22;14521;48.148;-1.656;2023-03-01T21:44:57;18.80;72.40
26964;DHT22;14521;48.148;-1.656;2023-03-01T21:48:19;18.80;74.90
26964;DHT22;14521;48.148;-1.656;2023-03-01T21:51:42;18.80;75.00
26964;DHT22;14521;48.148;-1.656;2023-03-01T21:55:04;18.70;70.70
26964;DHT22;14521;48.148;-1.656;2023-03-01T21:58:26;18.60;73.30
26964;DHT22;14521;48.148;-1.656;2023-03-01T22:01:50;18.70;76.20
26964;DHT22;14521;48.148;-1.656;2023-03-01T22:05:12;18.60;75.90
26964;DHT22;14521;48.148;-1.656;2023-03-01T22:08:35;18.60;72.90
26964;DHT22;14521;48.148;-1.656;2023-03-01T22:11:57;18.60;71.60
26964;DHT22;14521;48.148;-1.656;2023-03-01T22:15:23;18.50;72.40
26964;DHT22;14521;48.148;-1.656;2023-03-01T22:18:46;18.50;71.90
26964;DHT22;14521;48.148;-1.656;2023-03-01T22:22:08;18.60;71.80
26964;DHT22;14521;48.148;-1.656;2023-03-01T22:25:30;18.60;72.70
26964;DHT22;14521;48.148;-1.656;2023-03-01T22:28:53;18.60;73.20
26964;DHT22;14521;48.148;-1.656;2023-03-01T22:32:16;18.50;72.60
26964;DHT22;14521;48.148;-1.656;2023-03-01T22:35:41;18.50;72.40
26964;DHT22;14521;48.148;-1.656;2023-03-01T22:39:04;18.60;72.50
26964;DHT22;14521;48.148;-1.656;2023-03-01T22:42:26;18.50;72.60
26964;DHT22;14521;48.148;-1.656;2023-03-01T22:45:48;18.50;72.40
26964;DHT22;14521;48.148;-1.656;2023-03-01T22:49:11;18.50;72.60
26964;DHT22;14521;48.148;-1.656;2023-03-01T22:52:33;18.40;72.40
26964;DHT22;14521;48.148;-1.656;2023-03-01T22:55:55;18.40;72.40
26964;DHT22;14521;48.148;-1.656;2023-03-01T22:59:18;18.40;72.20
26964;DHT22;14521;48.148;-1.656;2023-03-01T23:02:40;18.40;71.90
26964;DHT22;14521;48.148;-1.656;2023-03-01T23:06:03;18.30;71.80
26964;DHT22;14521;48.148;-1.656;2023-03-01T23:09:28;18.30;71.70
26964;DHT22;14521;48.148;-1.656;2023-03-01T23:12:55;18.30;71.70
26964;DHT22;14521;48.148;-1.656;2023-03-01T23:16:17;18.30;71.50
26964;DHT22;14521;48.148;-1.656;2023-03-01T23:19:39;18.30;71.20
26964;DHT22;14521;48.148;-1.656;2023-03-01T23:23:02;18.20;71.00